An Run Da 2 — BHNX — position and weather

sailwx.info

Track history (hours):
 
Tides and Currents Weather Stations Pressure Air Temp Water Temp Dewpoint Dewpoint Depression Visibility Wind Speed Wind Dir Waves Ship Positions

An Run Da 2

Last reported at 2014-Oct-31 13:33 UTC. Time now 2014-Oct-31 13:39 UTC.
Position N 32°00' E 120°35'.

Length 147 m; draft 8.5 m.

Type: Cargo ship. MMSI: 413360230.

Date/timePositionNaut miles runAvg speedWind from/ knotsBaromVisibWave heightAir tempDewpointWater temp
2014-Oct-31 13:33N 32°00' E 120°35'10 9.9
2014-Oct-31 12:33N 32°01' E 120°47'10 9.7
2014-Oct-31 11:33N 31°53' E 120°53'10 9.5
2014-Oct-31 10:32N 31°46' E 121°02'1110.8
2014-Oct-31 09:32N 31°40' E 121°12'1110.9
2014-Oct-31 08:32N 31°32' E 121°21'11 9.1
2014-Oct-31 07:19N 31°25' E 121°31'7 9.2
2014-Oct-31 06:33N 31°22' E 121°38'297 7.2
2014-Oct-29 13:32N 36°14' E 122°43'24 9.9
2014-Oct-29 11:05N 36°38' E 122°45'6 9.9
2014-Oct-29 10:31N 36°44' E 122°45'1010.4
2014-Oct-29 09:33N 36°54' E 122°45'1111.3
2014-Oct-29 08:33N 37°05' E 122°46'1212.0
2014-Oct-29 07:32N 37°17' E 122°47'1212.4
2014-Oct-29 06:33N 37°29' E 122°44'1211.7
2014-Oct-29 05:33N 37°35' E 122°31'1111.1
2014-Oct-29 04:32N 37°38' E 122°17'1010.6
2014-Oct-29 03:34N 37°41' E 122°05'1210.2
2014-Oct-29 02:25N 37°45' E 121°51'910.2
2014-Oct-29 01:33N 37°48' E 121°40'1010.4
2014-Oct-29 00:33N 37°51' E 121°28'1010.2
2014-Oct-28 23:34N 37°55' E 121°16'1110.0
2014-Oct-28 22:30N 37°57' E 121°02'9 9.6
2014-Oct-28 21:33N 37°59' E 120°51'  
2014-Oct-24 19:20N 37°55' E 121°16'911.3
2014-Oct-24 18:32N 37°53' E 121°27'1111.7
2014-Oct-24 17:33N 37°50' E 121°41'1311.3
2014-Oct-24 16:23N 37°45' E 121°57'910.6
2014-Oct-24 15:33N 37°44' E 122°08'2310.7
2014-Oct-24 13:24N 37°38' E 122°36'2110.7
2014-Oct-24 11:28N 37°21' E 122°52'1312.7
2014-Oct-24 10:29N 37°09' E 122°53'1213.4
2014-Oct-24 09:33N 36°56' E 122°52'1412.7
2014-Oct-24 08:29N 36°43' E 122°53'3711.7
2014-Oct-24 05:22N 36°06' E 122°51'298 9.3
2014-Oct-22 21:24N 31°13' E 121°48'1112.6
2014-Oct-22 20:33N 31°21' E 121°39'8 8.2
2014-Oct-22 19:34N 31°22' E 121°30'6 6.3
2014-Oct-22 18:33N 31°17' E 121°34'5 5.1
2014-Oct-22 17:33N 31°13' E 121°30'5 5.2
2014-Oct-22 16:32N 31°08' E 121°27'4 4.2
2014-Oct-22 15:28N 31°04' E 121°28'1 0.0
2014-Oct-21 18:26N 31°03' E 121°28'6 5.0
2014-Oct-21 17:14N 31°09' E 121°27'4 5.4
2014-Oct-21 16:32N 31°12' E 121°30'4 4.3
2014-Oct-21 15:32N 31°16' E 121°33'5 5.3
2014-Oct-21 14:33N 31°21' E 121°32'4 3.5
2014-Oct-21 13:33N 31°24' E 121°34'  
Track history (hours):
 
Tides and Currents Weather Stations Pressure Air Temp Water Temp Dewpoint Dewpoint Depression Visibility Wind Speed Wind Dir Waves Ship Positions

An Run Da 2

Last reported at 2014-Oct-31 13:33 UTC. Time now 2014-Oct-31 13:39 UTC.
Position N 32°00' E 120°35'.

Length 147 m; draft 8.5 m.

Type: Cargo ship. MMSI: 413360230.

Date/timePositionNaut miles runAvg speedWind from/ knotsBaromVisibWave heightAir tempDewpointWater temp
2014-Oct-31 13:33N 32°00' E 120°35'10 9.9
2014-Oct-31 12:33N 32°01' E 120°47'10 9.7
2014-Oct-31 11:33N 31°53' E 120°53'10 9.5
2014-Oct-31 10:32N 31°46' E 121°02'1110.8
2014-Oct-31 09:32N 31°40' E 121°12'1110.9
2014-Oct-31 08:32N 31°32' E 121°21'11 9.1
2014-Oct-31 07:19N 31°25' E 121°31'7 9.2
2014-Oct-31 06:33N 31°22' E 121°38'297 7.2
2014-Oct-29 13:32N 36°14' E 122°43'24 9.9
2014-Oct-29 11:05N 36°38' E 122°45'6 9.9
2014-Oct-29 10:31N 36°44' E 122°45'1010.4
2014-Oct-29 09:33N 36°54' E 122°45'1111.3
2014-Oct-29 08:33N 37°05' E 122°46'1212.0
2014-Oct-29 07:32N 37°17' E 122°47'1212.4
2014-Oct-29 06:33N 37°29' E 122°44'1211.7
2014-Oct-29 05:33N 37°35' E 122°31'1111.1
2014-Oct-29 04:32N 37°38' E 122°17'1010.6
2014-Oct-29 03:34N 37°41' E 122°05'1210.2
2014-Oct-29 02:25N 37°45' E 121°51'910.2
2014-Oct-29 01:33N 37°48' E 121°40'1010.4
2014-Oct-29 00:33N 37°51' E 121°28'1010.2
2014-Oct-28 23:34N 37°55' E 121°16'1110.0
2014-Oct-28 22:30N 37°57' E 121°02'9 9.6
2014-Oct-28 21:33N 37°59' E 120°51'  
2014-Oct-24 19:20N 37°55' E 121°16'911.3
2014-Oct-24 18:32N 37°53' E 121°27'1111.7
2014-Oct-24 17:33N 37°50' E 121°41'1311.3
2014-Oct-24 16:23N 37°45' E 121°57'910.6
2014-Oct-24 15:33N 37°44' E 122°08'2310.7
2014-Oct-24 13:24N 37°38' E 122°36'2110.7
2014-Oct-24 11:28N 37°21' E 122°52'1312.7
2014-Oct-24 10:29N 37°09' E 122°53'1213.4
2014-Oct-24 09:33N 36°56' E 122°52'1412.7
2014-Oct-24 08:29N 36°43' E 122°53'3711.7
2014-Oct-24 05:22N 36°06' E 122°51'298 9.3
2014-Oct-22 21:24N 31°13' E 121°48'1112.6
2014-Oct-22 20:33N 31°21' E 121°39'8 8.2
2014-Oct-22 19:34N 31°22' E 121°30'6 6.3
2014-Oct-22 18:33N 31°17' E 121°34'5 5.1
2014-Oct-22 17:33N 31°13' E 121°30'5 5.2
2014-Oct-22 16:32N 31°08' E 121°27'4 4.2
2014-Oct-22 15:28N 31°04' E 121°28'1 0.0
2014-Oct-21 18:26N 31°03' E 121°28'6 5.0
2014-Oct-21 17:14N 31°09' E 121°27'4 5.4
2014-Oct-21 16:32N 31°12' E 121°30'4 4.3
2014-Oct-21 15:32N 31°16' E 121°33'5 5.3
2014-Oct-21 14:33N 31°21' E 121°32'4 3.5
2014-Oct-21 13:33N 31°24' E 121°34'  

Dump ship's entire track history